Time;durP1;ratioP1;P1;durP2;ratioP2;P2;SDS_P1;SDS_P2;PMS_P1;PMS_P2;Temp;Humidity;BMP_temperature;BMP_pressure;BME280_temperature;BME280_humidity;BME280_pressure;Samples;Min_cycle;Max_cycle;Signal;HPM_P1;HPM_P2
2022/08/12 00:45:09;;;;;;;110.03;25.65;;;;;;;;;;6179545;23;20025;-47
2022/08/12 00:47:36;;;;;;;;;;;;;;;;;;6179343;23;20059;-46
2022/08/12 00:50:17;;;;;;;171.05;28.92;;;;;;;;;;6176680;23;19920;-48
2022/08/12 00:52:45;;;;;;;181.80;28.75;;;;;;;;;;6179259;23;20095;-57
2022/08/12 00:55:20;;;;;;;111.38;25.48;;;;;;;;;;6178707;23;20359;-63
2022/08/12 00:57:48;;;;;;;132.48;28.60;;;;;;;;;;6178591;23;20605;-63
2022/08/12 01:00:26;;;;;;;144.60;31.08;;;;;;;;;;6180190;23;20072;-63
2022/08/12 01:03:01;;;;;;;122.90;30.90;;;;;;;;;;6179279;23;20025;-62
2022/08/12 01:11:27;;;;;;;149.82;34.08;;;;;;;;;;6179825;23;20017;-63
2022/08/12 01:14:03;;;;;;;136.90;34.65;;;;;;;;;;6178879;23;20067;-61
2022/08/12 01:16:30;;;;;;;135.98;34.85;;;;;;;;;;6179428;23;20017;-63
2022/08/12 01:18:57;;;;;;;119.95;32.67;;;;;;;;;;6178693;23;20581;-63
2022/08/12 01:21:48;;;;;;;181.50;35.67;;;;;;;;;;6154249;23;20260;-63
2022/08/12 01:24:28;;;;;;;210.20;37.17;;;;;;;;;;6178971;23;20061;-63
2022/08/12 01:27:10;;;;;;;192.25;35.35;;;;;;;;;;6177744;23;20025;-62
2022/08/12 01:29:42;;;;;;;133.55;32.83;;;;;;;;;;6179443;23;20029;-47
2022/08/12 01:32:18;;;;;;;160.02;32.70;;;;;;;;;;6178971;23;20025;-61
2022/08/12 01:34:50;;;;;;;98.53;31.45;;;;;;;;;;6178123;23;20021;-61
2022/08/12 01:37:24;;;;;;;200.95;36.08;;;;;;;;;;6180198;23;20029;-61
2022/08/12 01:39:51;;;;;;;;;;;;;;;;;;6181323;23;20028;-61
2022/08/12 01:42:42;;;;;;;146.15;33.42;;;;;;;;;;6182394;23;19982;-61
2022/08/12 01:45:17;;;;;;;;;;;;;;;;;;6181784;23;20025;-61
2022/08/12 01:48:03;;;;;;;69.57;25.30;;;;;;;;;;6181536;23;19920;-65
2022/08/12 01:50:45;;;;;;;96.35;30.98;;;;;;;;;;6179963;23;20076;-63
2022/08/12 01:53:14;;;;;;;89.13;29.77;;;;;;;;;;6182247;23;20453;-63
2022/08/12 01:55:49;;;;;;;92.88;30.65;;;;;;;;;;6180824;23;20032;-62
2022/08/12 02:01:33;;;;;;;105.70;32.53;;;;;;;;;;6181829;23;20048;-62
2022/08/12 02:13:13;;;;;;;102.00;30.77;;;;;;;;;;6181463;23;20104;-56
2022/08/12 02:15:45;;;;;;;120.45;32.88;;;;;;;;;;6181066;23;20021;-58
2022/08/12 02:18:18;;;;;;;;;;;;;;;;;;6180995;23;20021;-57
2022/08/12 02:20:53;;;;;;;105.88;31.60;;;;;;;;;;6180403;23;19920;-58
2022/08/12 02:23:28;;;;;;;115.82;32.25;;;;;;;;;;6180859;23;20021;-58
2022/08/12 02:26:04;;;;;;;105.50;32.35;;;;;;;;;;6180435;23;20029;-55
2022/08/12 02:28:39;;;;;;;89.07;30.92;;;;;;;;;;6180933;23;20021;-58
2022/08/12 02:31:07;;;;;;;110.40;34.75;;;;;;;;;;6180969;23;20029;-59
2022/08/12 02:33:36;;;;;;;109.80;32.30;;;;;;;;;;6179473;23;20025;-56
2022/08/12 02:36:22;;;;;;;63.65;24.60;;;;;;;;;;6181376;23;20029;-58
2022/08/12 02:38:51;;;;;;;102.97;31.42;;;;;;;;;;6154183;23;20076;-58
2022/08/12 02:41:26;;;;;;;109.35;33.22;;;;;;;;;;6180091;23;20025;-59
2022/08/12 02:43:59;;;;;;;108.57;33.97;;;;;;;;;;6179565;23;20087;-63
2022/08/12 02:46:33;;;;;;;120.28;35.70;;;;;;;;;;6181064;23;20036;-57
2022/08/12 02:49:04;;;;;;;153.32;39.85;;;;;;;;;;6178897;23;20028;-57
2022/08/12 02:51:37;;;;;;;135.45;37.63;;;;;;;;;;6179610;23;20059;-58
2022/08/12 02:54:12;;;;;;;116.70;36.20;;;;;;;;;;6178783;23;20024;-57
2022/08/12 02:56:40;;;;;;;84.63;28.67;;;;;;;;;;6181372;23;20471;-58
2022/08/12 02:59:18;;;;;;;124.43;36.67;;;;;;;;;;6180790;23;20029;-58
2022/08/12 03:01:54;;;;;;;137.30;37.67;;;;;;;;;;6180922;23;20029;-62
2022/08/12 03:04:29;;;;;;;102.35;33.25;;;;;;;;;;6180341;23;20414;-62
2022/08/12 03:07:19;;;;;;;145.52;38.92;;;;;;;;;;6180873;23;20392;-62
2022/08/12 03:09:49;;;;;;;127.90;38.53;;;;;;;;;;6179921;23;20036;-63
2022/08/12 03:12:34;;;;;;;101.30;35.35;;;;;;;;;;6181641;23;20085;-62
2022/08/12 03:15:13;;;;;;;126.85;38.58;;;;;;;;;;6180707;23;20162;-62
2022/08/12 03:17:57;;;;;;;109.28;36.45;;;;;;;;;;6181002;23;20050;-62
2022/08/12 03:20:44;;;;;;;124.68;38.53;;;;;;;;;;6180910;23;20104;-56
2022/08/12 03:23:21;;;;;;;115.68;35.15;;;;;;;;;;6180413;23;20036;-58
2022/08/12 03:26:05;;;;;;;135.02;37.30;;;;;;;;;;6179130;23;20029;-58
2022/08/12 03:28:52;;;;;;;171.60;39.03;;;;;;;;;;6180581;23;20549;-58
2022/08/12 03:31:23;;;;;;;178.00;43.00;;;;;;;;;;6180699;23;20025;-59
2022/08/12 03:34:00;;;;;;;174.32;40.92;;;;;;;;;;6179834;23;20075;-58
2022/08/12 03:36:35;;;;;;;179.30;43.50;;;;;;;;;;6179696;23;20029;-59
2022/08/12 03:41:48;;;;;;;130.63;37.55;;;;;;;;;;6180323;23;20095;-64
2022/08/12 04:01:51;;;;;;;434.30;45.70;;;;;;;;;;6177739;23;20053;-62
2022/08/12 04:04:22;;;;;;;430.17;49.25;;;;;;;;;;6180778;23;20017;-63
2022/08/12 04:06:56;;;;;;;906.08;64.47;;;;;;;;;;6180059;23;20021;-62
2022/08/12 04:09:24;;;;;;;;;;;;;;;;;;6179446;23;20025;-62
2022/08/12 04:14:44;;;;;;;269.98;34.60;;;;;;;;;;6180269;23;20076;-62
2022/08/12 04:17:11;;;;;;;516.55;52.17;;;;;;;;;;6180467;23;20079;-47
2022/08/12 04:19:39;;;;;;;531.28;53.53;;;;;;;;;;6179140;23;20040;-59
2022/08/12 04:22:14;;;;;;;499.02;51.97;;;;;;;;;;6177509;23;20052;-59
2022/08/12 04:24:54;;;;;;;433.23;51.88;;;;;;;;;;6178243;23;20025;-58
2022/08/12 04:27:30;;;;;;;319.10;45.15;;;;;;;;;;6178555;23;20483;-58
2022/08/12 04:29:58;;;;;;;171.75;40.13;;;;;;;;;;6178070;23;20391;-58
2022/08/12 04:32:48;;;;;;;135.85;38.05;;;;;;;;;;6180170;23;20078;-58
2022/08/12 04:35:22;;;;;;;139.60;38.55;;;;;;;;;;6179358;23;20029;-59
2022/08/12 04:37:53;;;;;;;99.50;35.30;;;;;;;;;;6177119;23;20029;-65
2022/08/12 04:40:28;;;;;;;101.28;33.55;;;;;;;;;;6179317;23;20351;-64
2022/08/12 04:43:02;;;;;;;103.32;34.13;;;;;;;;;;6178245;23;20068;-65
2022/08/12 04:45:29;;;;;;;;;;;;;;;;;;6177340;23;20032;-64
2022/08/12 04:48:00;;;;;;;82.72;30.85;;;;;;;;;;6179481;23;19921;-64
2022/08/12 04:50:34;;;;;;;85.97;30.50;;;;;;;;;;6176881;23;20743;-64
2022/08/12 04:53:07;;;;;;;77.22;28.73;;;;;;;;;;6178475;23;20417;-45
2022/08/12 04:55:41;;;;;;;60.40;28.25;;;;;;;;;;6177911;23;20025;-66
2022/08/12 04:58:09;;;;;;;58.58;25.35;;;;;;;;;;6178417;23;20029;-65
2022/08/12 05:00:37;;;;;;;;;;;;;;;;;;6177074;23;20025;-64
2022/08/12 05:03:11;;;;;;;53.03;25.35;;;;;;;;;;6178972;23;20536;-64
2022/08/12 05:05:39;;;;;;;50.03;23.65;;;;;;;;;;6179536;23;20029;-64
2022/08/12 05:08:16;;;;;;;45.63;22.92;;;;;;;;;;6178882;23;20021;-65
2022/08/12 05:10:50;;;;;;;38.22;20.92;;;;;;;;;;6178485;23;20021;-61
2022/08/12 05:13:17;;;;;;;;;;;;;;;;;;6179779;23;20092;-64
2022/08/12 05:15:45;;;;;;;40.85;20.38;;;;;;;;;;6179151;23;19916;-64
2022/08/12 05:18:32;;;;;;;35.05;19.13;;;;;;;;;;6180551;23;20056;-65
2022/08/12 05:21:13;;;;;;;35.63;18.65;;;;;;;;;;6180174;23;20028;-64
2022/08/12 05:23:47;;;;;;;27.70;16.65;;;;;;;;;;6154940;23;20471;-66
2022/08/12 05:26:21;;;;;;;31.35;16.67;;;;;;;;;;6178407;23;20466;-65
2022/08/12 05:28:55;;;;;;;23.88;15.52;;;;;;;;;;6180176;23;20028;-49
2022/08/12 05:31:22;;;;;;;15.50;11.02;;;;;;;;;;6180543;23;20087;-63
2022/08/12 05:34:13;;;;;;;25.73;13.85;;;;;;;;;;6179807;23;20025;-64
2022/08/12 05:36:56;;;;;;;22.02;13.73;;;;;;;;;;6179400;23;20068;-65
2022/08/12 05:39:24;;;;;;;;;;;;;;;;;;6180859;23;20036;-64
2022/08/12 05:41:58;;;;;;;25.23;13.88;;;;;;;;;;6180751;23;19920;-65
2022/08/12 05:44:25;;;;;;;23.83;11.60;;;;;;;;;;6179550;23;20020;-64
2022/08/12 05:46:52;;;;;;;16.40;10.48;;;;;;;;;;6180244;23;20124;-60
2022/08/12 05:49:27;;;;;;;20.85;11.65;;;;;;;;;;6179804;23;20355;-64
2022/08/12 05:51:55;;;;;;;19.98;10.73;;;;;;;;;;6180270;23;20076;-65
2022/08/12 05:54:22;;;;;;;17.15;9.50;;;;;;;;;;6180133;23;20075;-63
2022/08/12 05:57:16;;;;;;;12.43;8.20;;;;;;;;;;6178891;23;20025;-65
2022/08/12 05:59:43;;;;;;;17.45;9.82;;;;;;;;;;6177536;23;20491;-64
2022/08/12 06:02:17;;;;;;;10.52;8.05;;;;;;;;;;6179223;23;20024;-65
2022/08/12 06:04:44;;;;;;;10.02;7.65;;;;;;;;;;6179318;23;20028;-64
2022/08/12 06:07:12;;;;;;;10.13;6.68;;;;;;;;;;6178316;23;20032;-52
2022/08/12 06:10:06;;;;;;;10.93;6.45;;;;;;;;;;6158837;23;20049;-62
2022/08/12 06:12:33;;;;;;;10.32;6.88;;;;;;;;;;6180088;23;20025;-63
2022/08/12 06:15:16;;;;;;;14.73;6.53;;;;;;;;;;6179203;23;20039;-63
2022/08/12 06:17:43;;;;;;;14.50;7.28;;;;;;;;;;6179602;23;20021;-63
2022/08/12 06:20:17;;;;;;;8.82;5.85;;;;;;;;;;6179464;23;20044;-63
2022/08/12 06:22:56;;;;;;;9.75;5.57;;;;;;;;;;6178984;23;20025;-63
2022/08/12 06:25:36;;;;;;;8.35;5.18;;;;;;;;;;6178301;23;20052;-64
2022/08/12 06:28:13;;;;;;;8.27;5.30;;;;;;;;;;6180885;23;20017;-50
2022/08/12 06:30:50;;;;;;;6.32;4.55;;;;;;;;;;6180202;23;20067;-46
2022/08/12 06:33:39;;;;;;;10.13;5.25;;;;;;;;;;6181349;23;20096;-47
2022/08/12 06:36:26;;;;;;;7.07;4.50;;;;;;;;;;6181116;23;20021;-48
2022/08/12 06:39:04;;;;;;;6.43;4.57;;;;;;;;;;6181902;23;20025;-46
2022/08/12 06:44:49;;;;;;;7.35;3.72;;;;;;;;;;6180414;23;20100;-65
2022/08/12 06:47:23;;;;;;;6.72;4.68;;;;;;;;;;6181177;23;20032;-63
2022/08/12 06:49:52;;;;;;;6.63;4.20;;;;;;;;;;6181619;23;20359;-65
2022/08/12 06:52:23;;;;;;;6.60;3.67;;;;;;;;;;6181704;23;20057;-65
2022/08/12 06:54:58;;;;;;;7.72;3.90;;;;;;;;;;6181116;23;20021;-65
2022/08/12 06:57:29;;;;;;;6.05;3.70;;;;;;;;;;6156591;23;20029;-64
2022/08/12 07:00:21;;;;;;;7.53;4.05;;;;;;;;;;6181361;23;20100;-58
2022/08/12 07:03:00;;;;;;;6.43;3.63;;;;;;;;;;6180962;23;20029;-64
2022/08/12 07:05:47;;;;;;;5.15;3.20;;;;;;;;;;6180147;23;20497;-62
2022/08/12 07:08:22;;;;;;;7.05;3.58;;;;;;;;;;6181786;23;20099;-62
2022/08/12 07:10:57;;;;;;;4.43;3.17;;;;;;;;;;6180018;23;20048;-61
2022/08/12 07:13:37;;;;;;;5.35;2.95;;;;;;;;;;6181834;23;20028;-62
2022/08/12 07:16:50;;;;;;;5.80;3.30;;;;;;;;;;6180696;23;20059;-61
2022/08/12 07:19:21;;;;;;;5.35;3.15;;;;;;;;;;6181294;23;20056;-65
2022/08/12 07:21:48;;;;;;;5.80;2.60;;;;;;;;;;6181172;23;20021;-59
2022/08/12 07:24:28;;;;;;;5.18;2.72;;;;;;;;;;6180650;23;20363;-58
2022/08/12 07:27:08;;;;;;;5.63;2.72;;;;;;;;;;6180729;23;20490;-58
2022/08/12 07:29:36;;;;;;;6.25;2.80;;;;;;;;;;6180669;23;20079;-58
2022/08/12 07:32:30;;;;;;;4.28;2.47;;;;;;;;;;6180340;23;20095;-58
2022/08/12 07:34:57;;;;;;;4.00;2.22;;;;;;;;;;6179426;23;20091;-59
2022/08/12 07:37:32;;;;;;;3.95;2.10;;;;;;;;;;6181210;23;20033;-64
2022/08/12 07:39:59;;;;;;;4.45;2.50;;;;;;;;;;6181373;23;20025;-64
2022/08/12 07:42:28;;;;;;;3.55;2.30;;;;;;;;;;6181431;23;20067;-64
2022/08/12 07:45:03;;;;;;;3.85;2.38;;;;;;;;;;6180545;23;20043;-64
2022/08/12 07:47:30;;;;;;;3.67;2.13;;;;;;;;;;6181443;23;20127;-64
2022/08/12 07:50:00;;;;;;;4.55;2.35;;;;;;;;;;6154625;23;20024;-64
2022/08/12 07:52:47;;;;;;;3.20;1.95;;;;;;;;;;6181607;23;20025;-66
2022/08/12 07:55:16;;;;;;;4.35;2.35;;;;;;;;;;6180474;23;20036;-66
2022/08/12 07:57:58;;;;;;;4.47;2.65;;;;;;;;;;6181045;23;20036;-65
2022/08/12 08:00:31;;;;;;;5.25;2.33;;;;;;;;;;6181047;23;20048;-59
2022/08/12 08:03:07;;;;;;;3.92;2.17;;;;;;;;;;6156467;23;20332;-59
2022/08/12 08:05:45;;;;;;;5.72;2.20;;;;;;;;;;6181058;23;20025;-59
2022/08/12 08:08:20;;;;;;;5.40;2.33;;;;;;;;;;6181485;23;20029;-60
2022/08/12 08:13:52;;;;;;;5.97;1.98;;;;;;;;;;6180463;23;20021;-63
2022/08/12 08:16:19;;;;;;;4.97;2.33;;;;;;;;;;6180765;23;20487;-48
2022/08/12 08:18:46;;;;;;;10.05;2.70;;;;;;;;;;6180425;23;20064;-58
2022/08/12 08:21:20;;;;;;;3.45;1.98;;;;;;;;;;6180863;23;20052;-58
2022/08/12 08:26:59;;;;;;;6.22;2.20;;;;;;;;;;6179004;23;20064;-59
2022/08/12 08:29:28;;;;;;;;;;;;;;;;;;6180343;23;20414;-59
2022/08/12 08:32:06;;;;;;;5.10;2.00;;;;;;;;;;6180050;23;19924;-62
2022/08/12 08:34:35;;;;;;;4.32;1.80;;;;;;;;;;6179277;23;20101;-62
2022/08/12 08:37:20;;;;;;;6.40;2.30;;;;;;;;;;6180088;23;20027;-60
2022/08/12 08:39:49;;;;;;;3.25;2.10;;;;;;;;;;6179280;23;20554;-60
2022/08/12 08:42:39;;;;;;;2.83;1.65;;;;;;;;;;6179688;23;20028;-59
2022/08/12 08:45:11;;;;;;;3.70;2.03;;;;;;;;;;6180543;23;20024;-60
2022/08/12 08:47:45;;;;;;;5.13;1.98;;;;;;;;;;6180510;23;20434;-60
2022/08/12 08:50:15;;;;;;;;;;;;;;;;;;6179737;23;20060;-60
2022/08/12 08:52:43;;;;;;;3.53;1.90;;;;;;;;;;6154357;23;19920;-62
2022/08/12 08:55:17;;;;;;;5.05;1.77;;;;;;;;;;6180320;23;20028;-56
2022/08/12 08:57:54;;;;;;;4.68;1.88;;;;;;;;;;6179804;23;20517;-57
2022/08/12 09:00:29;;;;;;;5.30;2.28;;;;;;;;;;6179928;23;20025;-54
2022/08/12 09:02:56;;;;;;;7.75;1.90;;;;;;;;;;6180902;23;20025;-53
2022/08/12 09:05:25;;;;;;;4.72;2.10;;;;;;;;;;6179047;23;20087;-56
2022/08/12 09:08:19;;;;;;;2.38;1.88;;;;;;;;;;6180023;23;20017;-57
2022/08/12 09:13:26;;;;;;;4.28;1.80;;;;;;;;;;6180550;23;20087;-47
2022/08/12 09:14:08;;;;;;;5.57;2.22;;;;;;;;;;6180540;23;20530;-66
2022/08/12 09:16:45;;;;;;;3.25;1.58;;;;;;;;;;6180147;23;20025;-66
2022/08/12 09:19:21;;;;;;;3.38;1.77;;;;;;;;;;6179612;23;20025;-67
2022/08/12 09:22:09;;;;;;;3.55;1.60;;;;;;;;;;6179988;23;20412;-66
2022/08/12 09:25:17;;;;;;;6.20;1.90;;;;;;;;;;6178719;23;20100;-66
2022/08/12 09:27:53;;;;;;;3.08;1.95;;;;;;;;;;6176632;23;20028;-61
2022/08/12 09:30:32;;;;;;;2.78;1.80;;;;;;;;;;6179006;23;20268;-50
2022/08/12 09:33:08;;;;;;;4.68;1.83;;;;;;;;;;6179602;23;20025;-47
2022/08/12 09:36:03;;;;;;;4.60;1.98;;;;;;;;;;6178234;23;20140;-46
2022/08/12 09:38:32;;;;;;;5.35;1.70;;;;;;;;;;6179968;23;20099;-48
2022/08/12 09:41:25;;;;;;;2.78;1.80;;;;;;;;;;6179082;23;20087;-51
2022/08/12 09:47:10;;;;;;;4.40;1.70;;;;;;;;;;6178928;23;20021;-52
2022/08/12 09:49:57;;;;;;;4.50;2.22;;;;;;;;;;6177554;23;20629;-64
2022/08/12 09:52:31;;;;;;;6.22;2.03;;;;;;;;;;6179967;23;20025;-63
2022/08/12 09:54:58;;;;;;;3.10;1.70;;;;;;;;;;6179145;23;20083;-63
2022/08/12 09:57:29;;;;;;;3.35;1.83;;;;;;;;;;6178836;23;20067;-64
2022/08/12 10:00:26;;;;;;;6.75;1.90;;;;;;;;;;6180001;23;20025;-62
2022/08/12 10:03:07;;;;;;;2.63;1.65;;;;;;;;;;6181453;23;20056;-64
2022/08/12 10:06:00;;;;;;;6.63;1.67;;;;;;;;;;6181766;23;20036;-47
2022/08/12 10:08:47;;;;;;;3.72;1.60;;;;;;;;;;6182464;23;20021;-55
2022/08/12 10:14:27;;;;;;;3.08;1.60;;;;;;;;;;6181694;23;20422;-57
2022/08/12 10:17:04;;;;;;;3.70;1.30;;;;;;;;;;6157587;23;20040;-56
2022/08/12 10:19:36;;;;;;;2.45;1.33;;;;;;;;;;6181735;23;20029;-57
2022/08/12 18:55:10;;;;;;;3.40;1.17;;;;;;;;;;6173211;23;20032;-60
2022/08/12 18:57:53;;;;;;;2.88;1.40;;;;;;;;;;6176293;23;20028;-61
2022/08/12 19:00:35;;;;;;;1.10;1.00;;;;;;;;;;6177616;23;20029;-55
2022/08/12 19:03:15;;;;;;;1.45;1.20;;;;;;;;;;6176572;23;20035;-55
2022/08/12 19:06:03;;;;;;;2.03;1.08;;;;;;;;;;6178442;23;20350;-55
2022/08/12 19:08:48;;;;;;;3.15;1.45;;;;;;;;;;6178035;23;20025;-56
2022/08/12 19:14:24;;;;;;;3.53;1.30;;;;;;;;;;6177778;23;20046;-56
2022/08/12 19:16:54;;;;;;;1.75;1.20;;;;;;;;;;6176237;23;20025;-61
2022/08/12 19:19:29;;;;;;;1.70;1.20;;;;;;;;;;6176876;23;20025;-60
2022/08/12 19:22:07;;;;;;;1.23;1.13;;;;;;;;;;6177090;23;20028;-60
2022/08/12 19:27:45;;;;;;;3.58;1.60;;;;;;;;;;6177329;23;20018;-61
2022/08/12 19:33:12;;;;;;;2.42;1.55;;;;;;;;;;6176705;23;20028;-61
2022/08/12 19:35:48;;;;;;;1.80;1.30;;;;;;;;;;6177132;23;20029;-66
2022/08/12 19:38:35;;;;;;;4.07;1.27;;;;;;;;;;6177422;23;20411;-55
2022/08/12 19:41:22;;;;;;;3.08;1.30;;;;;;;;;;6176859;23;20062;-55
2022/08/12 19:44:08;;;;;;;4.40;1.40;;;;;;;;;;6177743;23;20025;-55
2022/08/12 19:46:45;;;;;;;1.63;1.50;;;;;;;;;;6176104;23;20017;-56
2022/08/12 19:49:19;;;;;;;5.15;1.50;;;;;;;;;;6176673;23;20029;-55
2022/08/12 19:51:54;;;;;;;2.40;1.27;;;;;;;;;;6177300;23;20029;-56
2022/08/12 19:54:31;;;;;;;3.92;1.40;;;;;;;;;;6177507;23;20361;-65
2022/08/12 19:57:17;;;;;;;4.72;1.45;;;;;;;;;;6176229;23;20670;-66
2022/08/12 19:59:45;;;;;;;3.58;1.77;;;;;;;;;;6177005;23;20021;-67
2022/08/12 20:02:33;;;;;;;2.95;1.33;;;;;;;;;;6177051;23;20422;-67
2022/08/12 20:05:03;;;;;;;2.20;1.58;;;;;;;;;;6176442;23;20044;-67
2022/08/12 20:07:57;;;;;;;4.72;1.60;;;;;;;;;;6176113;23;20095;-67
2022/08/12 20:10:32;;;;;;;4.53;1.48;;;;;;;;;;6177025;23;20478;-65
2022/08/12 20:13:07;;;;;;;1.95;1.33;;;;;;;;;;6176220;23;20025;-58
2022/08/12 20:15:52;;;;;;;4.10;1.60;;;;;;;;;;6176329;23;20029;-67
2022/08/12 20:18:28;;;;;;;3.17;1.50;;;;;;;;;;6174032;23;20044;-66
2022/08/12 20:21:17;;;;;;;10.05;1.70;;;;;;;;;;6176106;23;20365;-66
2022/08/12 20:24:07;;;;;;;3.78;1.50;;;;;;;;;;6175893;23;20336;-66
2022/08/12 20:26:39;;;;;;;4.18;1.50;;;;;;;;;;6176584;23;20036;-66
2022/08/12 20:29:14;;;;;;;;;;;;;;;;;;6176931;23;20080;-44
2022/08/12 20:31:42;;;;;;;3.20;1.70;;;;;;;;;;6176840;23;20338;-61
2022/08/12 20:34:10;;;;;;;2.13;1.77;;;;;;;;;;6176451;23;20029;-53
2022/08/12 20:36:46;;;;;;;4.07;1.88;;;;;;;;;;6176384;23;20025;-55
2022/08/12 20:39:27;;;;;;;3.72;1.88;;;;;;;;;;6176811;23;20065;-54
2022/08/12 20:42:22;;;;;;;2.53;1.60;;;;;;;;;;6175582;23;20096;-56
2022/08/12 20:44:50;;;;;;;2.05;1.60;;;;;;;;;;6173926;23;20104;-55
2022/08/12 20:47:24;;;;;;;2.55;1.80;;;;;;;;;;6175408;23;20296;-62
2022/08/12 20:50:08;;;;;;;2.80;1.80;;;;;;;;;;6175807;23;20029;-54
2022/08/12 20:52:47;;;;;;;6.22;2.15;;;;;;;;;;6177059;23;20025;-66
2022/08/12 20:55:14;;;;;;;2.58;1.90;;;;;;;;;;6176746;23;20470;-67
2022/08/12 20:57:45;;;;;;;2.45;1.77;;;;;;;;;;6200668;23;20024;-66
2022/08/12 21:00:32;;;;;;;1.73;1.60;;;;;;;;;;6206214;23;20031;-66
2022/08/12 21:06:55;;;;;;;5.32;1.77;;;;;;;;;;6205940;23;20354;-66
2022/08/12 21:09:06;;;;;;;2.50;1.60;;;;;;;;;;6206139;23;20090;-43
2022/08/12 21:11:41;;;;;;;3.53;2.42;;;;;;;;;;6205030;23;20063;-47
2022/08/12 21:14:12;;;;;;;3.15;1.98;;;;;;;;;;6205551;23;20032;-44
2022/08/12 21:16:42;;;;;;;3.20;2.00;;;;;;;;;;6204016;23;20024;-44
2022/08/12 21:19:19;;;;;;;3.10;1.60;;;;;;;;;;6200181;23;20100;-46
2022/08/12 21:21:52;;;;;;;3.38;1.85;;;;;;;;;;6203654;23;20020;-49
2022/08/12 21:24:29;;;;;;;4.60;1.70;;;;;;;;;;6204171;23;20052;-61
2022/08/12 21:27:05;;;;;;;3.63;1.83;;;;;;;;;;6204137;23;20348;-65
2022/08/12 21:29:43;;;;;;;7.78;2.00;;;;;;;;;;6205523;23;20036;-63
2022/08/12 21:32:25;;;;;;;12.00;2.20;;;;;;;;;;6204325;23;20040;-66
2022/08/12 21:35:14;;;;;;;3.38;2.03;;;;;;;;;;6203856;23;20649;-65
2022/08/12 21:37:47;;;;;;;3.70;2.10;;;;;;;;;;6204874;23;20498;-64
2022/08/12 21:40:22;;;;;;;6.72;2.47;;;;;;;;;;6205278;23;20410;-65
2022/08/12 21:43:06;;;;;;;8.25;2.05;;;;;;;;;;6205047;23;20021;-61
2022/08/12 21:45:41;;;;;;;;;;;;;;;;;;6206511;23;20025;-45
2022/08/12 21:48:16;;;;;;;5.82;2.22;;;;;;;;;;6204189;23;20565;-44
2022/08/12 21:50:52;;;;;;;4.75;2.28;;;;;;;;;;6209231;23;20024;-49
2022/08/12 21:53:22;;;;;;;2.60;2.28;;;;;;;;;;6208276;23;20035;-45
2022/08/12 21:56:10;;;;;;;6.75;2.55;;;;;;;;;;6184888;23;20082;-44
2022/08/12 21:59:07;;;;;;;3.40;2.42;;;;;;;;;;6210751;23;20021;-44
2022/08/12 22:01:41;;;;;;;3.78;2.30;;;;;;;;;;6211073;23;20027;-64
2022/08/12 22:07:05;;;;;;;4.72;2.40;;;;;;;;;;6211157;23;20071;-63
2022/08/12 22:09:44;;;;;;;3.83;2.30;;;;;;;;;;6211158;23;20020;-64
2022/08/12 22:12:31;;;;;;;3.67;2.50;;;;;;;;;;6210141;23;20082;-64
2022/08/12 22:15:06;;;;;;;3.03;2.33;;;;;;;;;;6211540;23;20062;-64
2022/08/12 22:17:34;;;;;;;5.15;2.60;;;;;;;;;;6209506;23;20025;-64
2022/08/12 22:20:20;;;;;;;3.08;2.40;;;;;;;;;;6211648;23;20030;-63
2022/08/12 22:22:58;;;;;;;4.32;2.80;;;;;;;;;;6210405;23;20020;-61
2022/08/12 22:25:28;;;;;;;6.78;2.55;;;;;;;;;;6211317;23;20029;-61
2022/08/12 22:31:08;;;;;;;4.93;2.83;;;;;;;;;;6209432;23;20032;-61
2022/08/12 22:33:45;;;;;;;3.95;2.75;;;;;;;;;;6211167;23;20020;-61
2022/08/12 22:36:27;;;;;;;3.97;2.88;;;;;;;;;;6211099;23;20025;-61
2022/08/12 22:39:00;;;;;;;5.93;2.80;;;;;;;;;;6209279;23;20079;-53
2022/08/12 22:47:35;;;;;;;9.48;2.80;;;;;;;;;;6208447;23;20021;-48
2022/08/12 22:50:27;;;;;;;8.30;2.95;;;;;;;;;;6211172;23;20021;-50
2022/08/12 22:53:13;;;;;;;4.03;2.67;;;;;;;;;;6208939;23;20521;-49
2022/08/12 22:55:46;;;;;;;6.85;3.00;;;;;;;;;;6210048;23;20059;-49
2022/08/12 22:58:39;;;;;;;7.22;2.90;;;;;;;;;;6169353;23;20028;-56
2022/08/12 23:01:13;;;;;;;5.93;3.15;;;;;;;;;;6180381;23;20513;-54
2022/08/12 23:04:01;;;;;;;3.17;2.83;;;;;;;;;;6178480;23;20485;-55
2022/08/12 23:06:36;;;;;;;7.22;3.35;;;;;;;;;;6180477;23;20566;-54
2022/08/12 23:09:05;;;;;;;7.22;3.10;;;;;;;;;;6177231;23;20036;-55
2022/08/12 23:11:32;;;;;;;3.72;3.10;;;;;;;;;;6180603;23;20021;-54
2022/08/12 23:14:10;;;;;;;4.47;3.20;;;;;;;;;;6180071;23;20021;-49
2022/08/12 23:16:38;;;;;;;6.22;3.20;;;;;;;;;;6179877;23;20375;-64
2022/08/12 23:19:05;;;;;;;4.65;3.30;;;;;;;;;;6179508;23;20509;-52
2022/08/12 23:21:50;;;;;;;6.65;3.33;;;;;;;;;;6179776;23;20028;-53
2022/08/12 23:24:37;;;;;;;4.47;2.90;;;;;;;;;;6179794;23;20117;-55
2022/08/12 23:30:25;;;;;;;5.70;3.30;;;;;;;;;;6074767;23;20571;-54
2022/08/12 23:33:05;;;;;;;6.82;3.50;;;;;;;;;;6179190;23;20650;-63
2022/08/12 23:35:47;;;;;;;6.90;3.17;;;;;;;;;;6180127;23;20033;-56
2022/08/12 23:38:30;;;;;;;5.78;3.13;;;;;;;;;;6179130;23;20364;-55
2022/08/12 23:41:04;;;;;;;5.40;3.45;;;;;;;;;;6180676;23;20029;-52
2022/08/12 23:43:39;;;;;;;5.22;3.40;;;;;;;;;;6179793;23;20028;-54
2022/08/12 23:46:16;;;;;;;5.78;3.47;;;;;;;;;;6179475;23;20544;-55
2022/08/12 23:48:53;;;;;;;4.20;3.50;;;;;;;;;;6180474;23;20359;-52
2022/08/12 23:51:24;;;;;;;7.47;3.22;;;;;;;;;;6180247;23;20021;-44
2022/08/12 23:54:01;;;;;;;6.53;3.08;;;;;;;;;;6180113;23;20366;-52
2022/08/12 23:56:40;;;;;;;8.13;3.67;;;;;;;;;;6181203;23;20028;-51
2022/08/12 23:59:28;;;;;;;8.55;3.95;;;;;;;;;;6180908;23;20031;-53
